Time;durP1;ratioP1;P1;durP2;ratioP2;P2;SDS_P1;SDS_P2;PMS_P1;PMS_P2;Temp;Humidity;BMP_temperature;BMP_pressure;BME280_temperature;BME280_humidity;BME280_pressure;Samples;Min_cycle;Max_cycle;Signal;HPM_P1;HPM_P2
2021/08/29 00:00:22;;;;;;;16.55;12.60;;;10.50;99.90;;;;;;6155303;23;20001;-78
2021/08/29 00:02:48;;;;;;;16.17;11.63;;;10.50;99.90;;;;;;6155898;23;20064;-77
2021/08/29 00:05:14;;;;;;;15.77;11.48;;;10.50;99.90;;;;;;6155685;23;20077;-76
2021/08/29 00:07:40;;;;;;;18.60;10.98;;;10.40;99.90;;;;;;6129600;23;20527;-77
2021/08/29 00:10:07;;;;;;;13.95;10.20;;;10.40;99.90;;;;;;6128048;23;20095;-77
2021/08/29 00:12:33;;;;;;;15.85;9.82;;;10.40;99.90;;;;;;6156262;23;20433;-77
2021/08/29 00:14:59;;;;;;;16.38;11.10;;;10.40;99.90;;;;;;6155822;23;20076;-77
2021/08/29 00:17:25;;;;;;;18.00;9.82;;;10.40;99.90;;;;;;6154896;23;20121;-77
2021/08/29 00:19:51;;;;;;;18.05;11.02;;;10.40;99.90;;;;;;6155481;23;20002;-77
2021/08/29 00:22:17;;;;;;;14.60;10.90;;;10.40;99.90;;;;;;6155715;23;20061;-78
2021/08/29 00:24:42;;;;;;;15.38;10.52;;;10.30;99.90;;;;;;6154451;23;20433;-77
2021/08/29 00:27:08;;;;;;;15.50;11.05;;;10.30;99.90;;;;;;6155558;23;20013;-76
2021/08/29 00:29:34;;;;;;;17.00;11.18;;;10.30;99.90;;;;;;6155363;23;20033;-77
2021/08/29 00:32:00;;;;;;;18.13;12.45;;;10.30;99.90;;;;;;6129463;23;20002;-76
2021/08/29 00:34:25;;;;;;;18.17;12.70;;;10.30;99.90;;;;;;6155493;23;20012;-76
2021/08/29 00:36:51;;;;;;;16.67;12.82;;;10.20;99.90;;;;;;6155111;23;20018;-78
2021/08/29 00:39:18;;;;;;;18.40;11.27;;;10.10;99.90;;;;;;6155663;23;20002;-78
2021/08/29 00:41:44;;;;;;;19.13;10.95;;;10.10;99.90;;;;;;6155486;23;20002;-77
2021/08/29 00:44:11;;;;;;;15.82;11.20;;;10.10;99.90;;;;;;6154964;23;20009;-76
2021/08/29 00:46:37;;;;;;;15.98;10.95;;;10.00;99.90;;;;;;6155087;23;20006;-76
2021/08/29 00:49:03;;;;;;;14.70;10.88;;;10.10;99.90;;;;;;6155777;23;20012;-77
2021/08/29 00:51:28;;;;;;;16.10;11.38;;;10.00;99.90;;;;;;6154154;23;20060;-76
2021/08/29 00:53:55;;;;;;;17.67;12.65;;;10.00;99.90;;;;;;6155327;23;20006;-77
2021/08/29 00:56:24;;;;;;;15.82;11.45;;;10.00;99.90;;;;;;6154689;23;20013;-75
2021/08/29 00:58:54;;;;;;;16.08;11.70;;;10.00;99.90;;;;;;6155066;23;20447;-77
2021/08/29 01:01:24;;;;;;;20.23;12.55;;;10.00;99.90;;;;;;6129187;23;20577;-76
2021/08/29 01:03:55;;;;;;;16.58;12.75;;;10.00;99.90;;;;;;6155411;23;20013;-77
2021/08/29 01:06:33;;;;;;;18.65;12.07;;;10.00;99.90;;;;;;6154374;23;20005;-77
2021/08/29 01:09:03;;;;;;;18.10;11.57;;;10.00;99.90;;;;;;6155047;23;20036;-77
2021/08/29 01:11:29;;;;;;;15.77;11.48;;;10.00;99.90;;;;;;6154759;23;20002;-76
2021/08/29 01:14:03;;;;;;;18.00;12.10;;;10.00;99.90;;;;;;6155363;23;20008;-77
2021/08/29 01:16:35;;;;;;;14.55;11.25;;;9.90;99.90;;;;;;6153392;23;20581;-77
2021/08/29 01:19:25;;;;;;;17.60;11.30;;;9.90;99.90;;;;;;6155259;23;20022;-77
2021/08/29 01:21:51;;;;;;;15.65;10.88;;;9.90;99.90;;;;;;6155166;23;20006;-76
2021/08/29 01:24:21;;;;;;;19.33;12.15;;;9.90;99.90;;;;;;6154662;23;20008;-76
2021/08/29 01:26:46;;;;;;;18.55;13.10;;;9.90;99.90;;;;;;6154308;23;20005;-77
2021/08/29 01:29:15;;;;;;;18.80;13.25;;;9.90;99.90;;;;;;6129011;23;20033;-76
2021/08/29 01:31:42;;;;;;;19.45;12.95;;;9.90;99.90;;;;;;6154971;23;20322;-76
2021/08/29 01:34:15;;;;;;;20.45;13.45;;;9.90;99.90;;;;;;6153988;23;20060;-76
2021/08/29 01:36:43;;;;;;;15.43;12.15;;;9.90;99.90;;;;;;6154263;23;20064;-77
2021/08/29 01:39:09;;;;;;;16.65;12.38;;;9.90;99.90;;;;;;6154283;23;20301;-77
2021/08/29 01:41:38;;;;;;;25.73;13.13;;;10.00;99.90;;;;;;6154054;23;20088;-76
2021/08/29 01:44:04;;;;;;;19.02;11.60;;;9.90;99.90;;;;;;6155014;23;20426;-77
2021/08/29 01:46:32;;;;;;;20.77;12.10;;;9.90;99.90;;;;;;6154984;23;20027;-76
2021/08/29 01:48:58;;;;;;;16.52;10.85;;;9.90;99.90;;;;;;6155100;23;20008;-77
2021/08/29 01:51:24;;;;;;;17.77;12.18;;;9.90;99.90;;;;;;6154105;23;20047;-76
2021/08/29 01:53:50;;;;;;;15.02;12.07;;;9.80;99.90;;;;;;6154658;23;20029;-75
2021/08/29 01:56:16;;;;;;;14.93;10.57;;;9.90;99.90;;;;;;6154192;23;20014;-76
2021/08/29 01:58:41;;;;;;;15.10;11.68;;;9.80;99.90;;;;;;6154386;23;20032;-78
2021/08/29 02:01:12;;;;;;;14.93;12.00;;;9.90;99.90;;;;;;6154786;23;20002;-77
2021/08/29 02:03:42;;;;;;;15.50;12.02;;;9.90;99.90;;;;;;6155055;23;20344;-76
2021/08/29 02:06:29;;;;;;;18.63;12.32;;;9.90;99.90;;;;;;6153318;23;20877;-77
2021/08/29 02:09:00;;;;;;;15.32;11.18;;;9.90;99.90;;;;;;6154568;23;20001;-76
2021/08/29 02:11:30;;;;;;;18.13;12.73;;;9.90;99.90;;;;;;6154564;23;20012;-77
2021/08/29 02:13:58;;;;;;;18.42;13.25;;;9.80;99.90;;;;;;6154618;23;20500;-76
2021/08/29 02:16:23;;;;;;;19.13;14.30;;;9.80;99.90;;;;;;6154524;23;20024;-76
2021/08/29 02:18:53;;;;;;;21.25;14.68;;;9.80;99.90;;;;;;6154518;23;20532;-77
2021/08/29 02:21:20;;;;;;;17.90;13.27;;;9.80;99.90;;;;;;6153381;23;20009;-77
2021/08/29 02:23:47;;;;;;;18.30;12.27;;;9.80;99.90;;;;;;6154730;23;20430;-76
2021/08/29 02:26:15;;;;;;;16.70;13.68;;;9.90;99.90;;;;;;6154712;23;20322;-77
2021/08/29 02:28:42;;;;;;;19.15;13.85;;;9.80;99.90;;;;;;6154357;23;20036;-76
2021/08/29 02:31:08;;;;;;;20.67;13.80;;;9.80;99.90;;;;;;6154716;23;20044;-78
2021/08/29 02:33:34;;;;;;;19.63;14.23;;;9.80;99.90;;;;;;6153347;23;20005;-75
2021/08/29 02:36:01;;;;;;;17.52;13.25;;;9.80;99.90;;;;;;6152459;23;20069;-77
2021/08/29 02:38:27;;;;;;;17.20;14.02;;;9.80;99.90;;;;;;6154499;23;20002;-77
2021/08/29 02:40:55;;;;;;;18.73;12.65;;;9.70;99.90;;;;;;6154505;23;20005;-75
2021/08/29 02:43:23;;;;;;;17.17;11.70;;;9.70;99.90;;;;;;6154174;23;20081;-77
2021/08/29 02:45:50;;;;;;;19.23;13.48;;;9.70;99.90;;;;;;6154074;23;20007;-76
2021/08/29 02:48:17;;;;;;;13.30;11.57;;;9.70;99.90;;;;;;6154405;23;20500;-77
2021/08/29 02:50:45;;;;;;;19.80;13.73;;;9.60;99.90;;;;;;6154288;23;20452;-77
2021/08/29 02:53:15;;;;;;;16.88;12.20;;;9.60;99.90;;;;;;6154349;23;20002;-75
2021/08/29 02:55:42;;;;;;;16.63;13.20;;;9.60;99.90;;;;;;6154400;23;20087;-76
2021/08/29 02:58:09;;;;;;;17.90;13.18;;;9.60;99.90;;;;;;6153385;23;20400;-76
2021/08/29 03:00:35;;;;;;;13.98;11.45;;;9.60;99.90;;;;;;6154433;23;20077;-76
2021/08/29 03:03:01;;;;;;;11.95;10.65;;;9.50;99.90;;;;;;6153538;23;20064;-76
2021/08/29 03:05:26;;;;;;;15.57;11.80;;;9.40;99.90;;;;;;6154281;23;20006;-76
2021/08/29 03:07:52;;;;;;;16.65;12.05;;;9.50;99.90;;;;;;6154151;23;20376;-75
2021/08/29 03:10:18;;;;;;;19.45;13.38;;;9.40;99.90;;;;;;6153744;23;20040;-77
2021/08/29 03:12:45;;;;;;;18.98;11.85;;;9.40;99.90;;;;;;6128117;23;20052;-77
2021/08/29 03:15:12;;;;;;;15.75;12.98;;;9.50;99.90;;;;;;6154086;23;20005;-77
2021/08/29 03:17:38;;;;;;;19.20;13.63;;;9.40;99.90;;;;;;6127253;23;20437;-77
2021/08/29 03:20:07;;;;;;;17.25;13.80;;;9.40;99.90;;;;;;6154114;23;20048;-77
2021/08/29 03:22:34;;;;;;;17.58;13.75;;;9.40;99.90;;;;;;6153372;23;20124;-76
2021/08/29 03:25:00;;;;;;;20.58;13.65;;;9.30;99.90;;;;;;6154522;23;20009;-78
2021/08/29 03:27:26;;;;;;;14.43;12.05;;;9.30;99.90;;;;;;6128219;23;20005;-77
2021/08/29 03:29:52;;;;;;;16.15;11.65;;;9.30;99.90;;;;;;6154299;23;20368;-76
2021/08/29 03:32:21;;;;;;;17.67;13.10;;;9.30;99.90;;;;;;6154172;23;20084;-77
2021/08/29 03:34:50;;;;;;;14.57;12.38;;;9.30;99.90;;;;;;6155245;23;20056;-77
2021/08/29 03:37:18;;;;;;;19.05;11.73;;;9.30;99.90;;;;;;6155668;23;20451;-77
2021/08/29 03:39:44;;;;;;;15.63;11.88;;;9.20;99.90;;;;;;6155813;23;20004;-76
2021/08/29 03:42:11;;;;;;;15.30;10.55;;;9.20;99.90;;;;;;6155182;23;20329;-76
2021/08/29 03:44:37;;;;;;;12.52;10.13;;;9.20;99.90;;;;;;6155955;23;20341;-76
2021/08/29 03:47:03;;;;;;;18.00;11.80;;;9.20;99.90;;;;;;6155774;23;20084;-76
2021/08/29 03:49:29;;;;;;;15.02;11.27;;;9.30;99.90;;;;;;6155843;23;20002;-77
2021/08/29 03:51:55;;;;;;;15.82;12.07;;;9.20;99.90;;;;;;6156375;23;20005;-77
2021/08/29 03:54:22;;;;;;;15.85;12.25;;;9.30;99.90;;;;;;6155982;23;20072;-76
2021/08/29 03:56:48;;;;;;;15.07;11.43;;;9.30;99.90;;;;;;6155186;23;20016;-76
2021/08/29 03:59:14;;;;;;;17.17;11.18;;;9.30;99.90;;;;;;6155586;23;20006;-77
2021/08/29 04:01:39;;;;;;;21.60;13.00;;;9.30;99.90;;;;;;6155439;23;20009;-76
2021/08/29 04:04:05;;;;;;;17.10;13.00;;;9.30;99.90;;;;;;6156031;23;20009;-75
2021/08/29 04:06:35;;;;;;;14.55;12.75;;;9.20;99.90;;;;;;6154020;23;20330;-75
2021/08/29 04:09:06;;;;;;;12.60;10.32;;;9.10;99.90;;;;;;6126904;23;20019;-75
2021/08/29 04:11:33;;;;;;;14.63;10.82;;;9.10;99.90;;;;;;6153925;23;20025;-75
2021/08/29 04:13:59;;;;;;;15.07;11.65;;;9.10;99.90;;;;;;6155460;23;20085;-77
2021/08/29 04:16:25;;;;;;;15.23;11.15;;;9.20;99.90;;;;;;6154763;23;20087;-75
2021/08/29 04:18:51;;;;;;;13.77;10.23;;;9.30;99.90;;;;;;6153136;23;20014;-75
2021/08/29 04:21:23;;;;;;;17.23;10.75;;;9.40;99.90;;;;;;6155679;23;20025;-77
2021/08/29 04:23:49;;;;;;;12.48;10.18;;;9.40;99.90;;;;;;6126781;23;20521;-77
2021/08/29 04:26:14;;;;;;;15.93;10.85;;;9.40;99.90;;;;;;6154043;23;20056;-76
2021/08/29 04:28:40;;;;;;;12.13;10.43;;;9.50;99.90;;;;;;6154906;23;20429;-75
2021/08/29 04:31:12;;;;;;;15.57;11.57;;;9.50;99.90;;;;;;6155282;23;20002;-76
2021/08/29 04:33:38;;;;;;;15.88;11.90;;;9.50;99.90;;;;;;6154605;23;20040;-76
2021/08/29 04:36:05;;;;;;;13.82;11.23;;;9.60;99.90;;;;;;6155372;23;20006;-76
2021/08/29 04:38:31;;;;;;;21.38;11.38;;;9.60;99.90;;;;;;6155099;23;20002;-76
2021/08/29 04:40:57;;;;;;;14.82;10.88;;;9.70;99.90;;;;;;6154510;23;20002;-76
2021/08/29 04:43:23;;;;;;;15.30;10.52;;;9.70;99.90;;;;;;6155003;23;20005;-76
2021/08/29 04:45:48;;;;;;;15.85;10.82;;;9.80;99.90;;;;;;6155444;23;20012;-76
2021/08/29 04:48:15;;;;;;;14.80;11.30;;;9.80;99.90;;;;;;6155534;23;20398;-77
2021/08/29 04:50:41;;;;;;;14.35;11.77;;;9.90;99.90;;;;;;6155121;23;20009;-77
2021/08/29 04:53:06;;;;;;;13.02;11.30;;;10.00;99.90;;;;;;6155150;23;20050;-75
2021/08/29 04:55:32;;;;;;;16.08;11.13;;;10.00;99.90;;;;;;6154037;23;20032;-76
2021/08/29 04:57:58;;;;;;;14.98;11.73;;;10.10;99.90;;;;;;6154973;23;20033;-77
2021/08/29 05:00:23;;;;;;;14.13;11.10;;;10.10;99.90;;;;;;6155293;23;20005;-76
2021/08/29 05:02:49;;;;;;;13.23;10.25;;;10.20;99.90;;;;;;6155433;23;20012;-76
2021/08/29 05:05:15;;;;;;;13.43;10.93;;;10.20;99.90;;;;;;6155386;23;20060;-77
2021/08/29 05:07:40;;;;;;;14.18;11.02;;;10.30;99.90;;;;;;6154295;23;20084;-77
2021/08/29 05:10:07;;;;;;;15.90;12.07;;;10.40;99.90;;;;;;6154837;23;20006;-76
2021/08/29 05:12:32;;;;;;;13.48;11.45;;;10.40;99.90;;;;;;6154957;23;20055;-76
2021/08/29 05:14:58;;;;;;;12.30;10.68;;;10.50;99.90;;;;;;6153551;23;20033;-77
2021/08/29 05:17:23;;;;;;;12.30;10.55;;;10.50;99.90;;;;;;6154224;23;20065;-77
2021/08/29 05:19:49;;;;;;;12.07;10.77;;;10.60;99.90;;;;;;6155021;23;20010;-77
2021/08/29 05:22:15;;;;;;;14.10;11.57;;;10.70;99.90;;;;;;6154373;23;20006;-78
2021/08/29 05:24:41;;;;;;;13.65;12.23;;;10.80;99.90;;;;;;6155111;23;20012;-76
2021/08/29 05:27:06;;;;;;;15.43;11.70;;;10.80;99.90;;;;;;6152758;23;20390;-76
2021/08/29 05:29:32;;;;;;;16.10;10.65;;;11.00;99.90;;;;;;6154815;23;20006;-76
2021/08/29 05:31:58;;;;;;;13.50;10.20;;;11.00;99.90;;;;;;6154282;23;20016;-76
2021/08/29 05:34:23;;;;;;;13.18;10.48;;;11.10;99.90;;;;;;6154842;23;20006;-77
2021/08/29 05:36:49;;;;;;;11.32;10.18;;;11.10;99.90;;;;;;6154650;23;20020;-76
2021/08/29 05:39:15;;;;;;;14.30;10.60;;;11.20;99.90;;;;;;6154759;23;20014;-79
2021/08/29 05:41:40;;;;;;;13.98;11.95;;;11.30;99.90;;;;;;6153894;23;20009;-78
2021/08/29 05:44:06;;;;;;;17.27;12.40;;;11.40;99.90;;;;;;6154000;23;20055;-76
2021/08/29 05:46:32;;;;;;;14.45;11.75;;;11.50;99.90;;;;;;6128535;23;20005;-76
2021/08/29 05:48:58;;;;;;;15.68;12.95;;;11.50;99.90;;;;;;6154735;23;20001;-77
2021/08/29 05:51:23;;;;;;;15.90;13.80;;;11.60;99.90;;;;;;6153457;23;20048;-77
2021/08/29 05:53:49;;;;;;;14.45;13.05;;;11.60;99.90;;;;;;6154893;23;20536;-76
2021/08/29 05:56:14;;;;;;;16.35;13.25;;;11.70;99.90;;;;;;6155012;23;20441;-78
2021/08/29 05:58:40;;;;;;;14.13;12.32;;;11.70;99.90;;;;;;6154665;23;20028;-77
2021/08/29 06:01:06;;;;;;;15.50;13.50;;;11.80;99.90;;;;;;6155885;23;20001;-77
2021/08/29 06:03:31;;;;;;;14.63;13.10;;;11.90;99.90;;;;;;6152677;23;20005;-76
2021/08/29 06:05:58;;;;;;;14.75;12.95;;;12.00;99.90;;;;;;6152804;23;20002;-77
2021/08/29 06:08:23;;;;;;;15.82;13.95;;;12.00;99.90;;;;;;6154100;23;20044;-77
2021/08/29 06:10:49;;;;;;;16.48;13.50;;;12.10;99.90;;;;;;6127856;23;20006;-76
2021/08/29 06:13:15;;;;;;;15.85;14.23;;;12.30;99.90;;;;;;6153353;23;20052;-76
2021/08/29 06:15:40;;;;;;;16.20;14.38;;;12.40;99.90;;;;;;6154161;23;20008;-76
2021/08/29 06:18:06;;;;;;;16.42;14.70;;;12.50;99.90;;;;;;6153334;23;20032;-77
2021/08/29 06:20:32;;;;;;;19.73;14.52;;;12.50;99.90;;;;;;6153652;23;20064;-77
2021/08/29 06:22:57;;;;;;;17.05;14.18;;;12.60;99.90;;;;;;6127921;23;20001;-77
2021/08/29 06:25:23;;;;;;;19.23;14.55;;;12.80;99.90;;;;;;6155360;23;20036;-77
2021/08/29 06:27:49;;;;;;;17.35;14.57;;;12.90;99.90;;;;;;6154833;23;20504;-75
2021/08/29 06:30:14;;;;;;;16.90;15.20;;;13.10;99.90;;;;;;6153969;23;20036;-78
2021/08/29 06:32:40;;;;;;;16.80;15.02;;;13.20;99.90;;;;;;6152678;23;20409;-76
2021/08/29 06:35:06;;;;;;;15.15;13.55;;;13.30;99.90;;;;;;6150853;23;20075;-77
2021/08/29 06:37:32;;;;;;;15.77;14.18;;;13.50;99.90;;;;;;6153826;23;20021;-77
2021/08/29 06:39:57;;;;;;;15.88;13.48;;;13.60;99.90;;;;;;6128461;23;20001;-76
2021/08/29 06:42:23;;;;;;;14.88;13.27;;;13.70;99.90;;;;;;6153564;23;20012;-76
2021/08/29 06:44:49;;;;;;;15.73;13.85;;;13.80;99.90;;;;;;6153841;23;20100;-76
2021/08/29 06:47:14;;;;;;;16.77;13.13;;;13.90;99.90;;;;;;6154074;23;20005;-76
2021/08/29 06:49:40;;;;;;;15.23;13.27;;;14.00;99.90;;;;;;6153243;23;20010;-76
2021/08/29 06:52:06;;;;;;;18.25;14.07;;;14.00;99.90;;;;;;6154282;23;20006;-76
2021/08/29 06:54:31;;;;;;;16.73;13.13;;;14.10;99.90;;;;;;6154054;23;20448;-76
2021/08/29 06:56:57;;;;;;;16.65;12.55;;;14.20;99.90;;;;;;6154213;23;20010;-76
2021/08/29 06:59:23;;;;;;;14.05;12.55;;;14.40;99.90;;;;;;6154327;23;20001;-76
2021/08/29 07:01:48;;;;;;;16.23;14.60;;;14.40;99.90;;;;;;6153945;23;20073;-76
2021/08/29 07:04:14;;;;;;;18.48;15.43;;;14.60;99.90;;;;;;6152626;23;20706;-78
2021/08/29 07:06:39;;;;;;;16.17;13.63;;;14.60;99.90;;;;;;6152557;23;20341;-78
2021/08/29 07:09:05;;;;;;;18.35;14.20;;;14.80;99.90;;;;;;6155032;23;20059;-75
2021/08/29 07:11:31;;;;;;;15.02;13.52;;;14.90;99.90;;;;;;6156100;23;20005;-76
2021/08/29 07:13:56;;;;;;;14.88;13.18;;;14.90;99.90;;;;;;6156677;23;20469;-76
2021/08/29 07:16:22;;;;;;;15.05;13.50;;;15.10;99.90;;;;;;6156348;23;20096;-76
2021/08/29 07:18:48;;;;;;;14.43;12.93;;;15.30;99.90;;;;;;6156555;23;20014;-76
2021/08/29 07:21:14;;;;;;;15.40;13.60;;;15.40;99.90;;;;;;6155481;23;20077;-76
2021/08/29 07:23:39;;;;;;;17.27;13.18;;;15.60;99.90;;;;;;6128960;23;20013;-76
2021/08/29 07:26:05;;;;;;;15.82;14.15;;;15.70;99.90;;;;;;6156613;23;20032;-76
2021/08/29 07:28:31;;;;;;;15.00;12.50;;;15.80;99.90;;;;;;6156443;23;20005;-76
2021/08/29 07:30:57;;;;;;;14.48;13.02;;;15.90;99.90;;;;;;6156227;23;20009;-76
2021/08/29 07:33:22;;;;;;;13.85;12.40;;;16.00;99.90;;;;;;6155268;23;20033;-76
2021/08/29 07:35:48;;;;;;;13.20;11.88;;;16.20;99.90;;;;;;6128418;23;20425;-76
2021/08/29 07:38:14;;;;;;;13.27;11.07;;;16.30;99.90;;;;;;6155315;23;20009;-75
2021/08/29 07:40:40;;;;;;;13.30;11.93;;;16.40;99.90;;;;;;6154901;23;20013;-76
2021/08/29 07:43:05;;;;;;;13.02;11.70;;;16.50;99.90;;;;;;6154807;23;20049;-75
2021/08/29 07:45:31;;;;;;;13.02;11.60;;;16.60;99.90;;;;;;6155687;23;20001;-77
2021/08/29 07:47:57;;;;;;;12.55;10.32;;;16.70;99.90;;;;;;6155923;23;20001;-75
2021/08/29 07:50:24;;;;;;;11.95;10.65;;;16.70;99.90;;;;;;6155240;23;20056;-75
2021/08/29 07:52:50;;;;;;;12.82;11.27;;;16.80;99.90;;;;;;6154184;23;20345;-76
2021/08/29 07:55:16;;;;;;;12.45;10.50;;;16.90;99.90;;;;;;6155972;23;20088;-76
2021/08/29 07:57:42;;;;;;;12.13;10.50;;;17.00;99.90;;;;;;6155919;23;20031;-76
2021/08/29 08:00:08;;;;;;;14.65;10.80;;;17.10;99.90;;;;;;6155626;23;20025;-75
2021/08/29 08:02:34;;;;;;;12.48;10.65;;;17.10;99.90;;;;;;6155699;23;20009;-75
2021/08/29 08:05:00;;;;;;;13.68;11.02;;;17.20;99.90;;;;;;6154863;23;20009;-74
2021/08/29 08:07:26;;;;;;;12.18;10.25;;;17.30;99.90;;;;;;6155672;23;20012;-76
2021/08/29 08:09:51;;;;;;;16.65;10.55;;;17.40;99.90;;;;;;6155939;23;20002;-76
2021/08/29 08:12:18;;;;;;;12.63;9.70;;;17.50;99.90;;;;;;6155516;23;20015;-75
2021/08/29 08:14:43;;;;;;;11.40;9.55;;;17.60;99.90;;;;;;6155474;23;20096;-76
2021/08/29 08:17:09;;;;;;;13.35;10.05;;;17.70;99.90;;;;;;6155279;23;20084;-75
2021/08/29 08:19:35;;;;;;;12.90;9.43;;;17.70;99.90;;;;;;6154614;23;20064;-76
2021/08/29 08:22:01;;;;;;;11.85;9.48;;;17.80;99.90;;;;;;6156400;23;20005;-76
2021/08/29 08:24:26;;;;;;;13.18;10.07;;;17.80;99.90;;;;;;6155806;23;20414;-76
2021/08/29 08:26:52;;;;;;;12.02;9.15;;;17.80;99.90;;;;;;6155246;23;20057;-76
2021/08/29 08:29:18;;;;;;;15.98;10.00;;;17.90;99.90;;;;;;6155228;23;20341;-76
2021/08/29 08:31:44;;;;;;;13.40;10.02;;;18.00;99.90;;;;;;6154228;23;20063;-78
2021/08/29 08:34:10;;;;;;;12.52;9.77;;;18.10;99.90;;;;;;6155266;23;20010;-76
2021/08/29 08:36:35;;;;;;;11.43;9.52;;;18.10;99.90;;;;;;6153868;23;20009;-79
2021/08/29 08:39:01;;;;;;;11.43;9.57;;;18.20;99.90;;;;;;6155240;23;20009;-76
2021/08/29 08:41:28;;;;;;;15.70;9.98;;;18.10;99.90;;;;;;6154286;23;20005;-79
2021/08/29 08:43:54;;;;;;;14.38;9.88;;;18.10;99.90;;;;;;6155128;23;20429;-76
2021/08/29 08:46:20;;;;;;;14.48;9.32;;;18.10;99.90;;;;;;6153666;23;20356;-78
2021/08/29 08:48:49;;;;;;;12.80;9.07;;;18.20;99.90;;;;;;6155198;23;20006;-76
2021/08/29 08:51:27;;;;;;;12.68;9.93;;;18.30;99.90;;;;;;6155018;23;20067;-76
2021/08/29 08:53:54;;;;;;;12.70;10.38;;;18.30;99.90;;;;;;6154987;23;20005;-75
2021/08/29 08:56:21;;;;;;;16.23;11.32;;;18.40;99.90;;;;;;6154890;23;20013;-75
2021/08/29 08:58:47;;;;;;;15.63;12.30;;;18.40;99.90;;;;;;6155255;23;20015;-76
2021/08/29 09:01:14;;;;;;;17.65;13.80;;;18.50;99.90;;;;;;6154544;23;20013;-76
2021/08/29 09:03:41;;;;;;;16.08;11.88;;;18.60;99.90;;;;;;6154775;23;20037;-75
2021/08/29 09:06:07;;;;;;;20.77;13.00;;;18.50;99.90;;;;;;6155233;23;20029;-75
2021/08/29 09:08:35;;;;;;;16.83;12.10;;;18.60;99.90;;;;;;6154779;23;20008;-75
2021/08/29 09:11:02;;;;;;;13.48;10.88;;;18.70;99.90;;;;;;6155430;23;20076;-76
2021/08/29 09:13:47;;;;;;;15.77;10.63;;;18.70;99.90;;;;;;6154250;23;20005;-76
2021/08/29 09:16:18;;;;;;;16.10;10.10;;;18.80;99.90;;;;;;6154734;23;20002;-76
2021/08/29 09:18:55;;;;;;;11.10;9.23;;;18.80;99.90;;;;;;6155077;23;20089;-75
2021/08/29 09:21:30;;;;;;;15.30;9.57;;;18.80;99.90;;;;;;6155142;23;20336;-76
2021/08/29 09:23:59;;;;;;;12.75;9.23;;;18.90;99.90;;;;;;6155024;23;20001;-75
2021/08/29 09:26:27;;;;;;;13.23;10.25;;;18.90;99.90;;;;;;6155160;23;20013;-75
2021/08/29 09:28:58;;;;;;;13.05;10.13;;;19.00;99.90;;;;;;6154744;23;20092;-76
2021/08/29 09:31:41;;;;;;;11.88;9.98;;;19.00;99.90;;;;;;6153827;23;20001;-76
2021/08/29 09:34:07;;;;;;;13.25;9.02;;;19.00;99.90;;;;;;6154979;23;20001;-75
2021/08/29 09:36:33;;;;;;;10.63;8.88;;;19.10;99.90;;;;;;6153758;23;20430;-76
2021/08/29 09:39:10;;;;;;;10.55;8.20;;;19.10;99.90;;;;;;6154733;23;20009;-75
2021/08/29 09:41:37;;;;;;;12.02;8.43;;;19.10;99.90;;;;;;6154000;23;20037;-76
2021/08/29 09:44:11;;;;;;;9.35;8.05;;;19.20;99.90;;;;;;6154273;23;20029;-76
2021/08/29 09:47:04;;;;;;;9.82;7.53;;;19.20;99.90;;;;;;6154764;23;20085;-76
2021/08/29 09:49:34;;;;;;;9.32;7.70;;;19.20;99.90;;;;;;6153881;23;20021;-76
2021/08/29 09:52:02;;;;;;;10.30;7.90;;;19.30;99.90;;;;;;6155299;23;20006;-76
2021/08/29 09:54:44;;;;;;;9.73;7.28;;;19.30;99.90;;;;;;6154567;23;20033;-76
2021/08/29 09:57:11;;;;;;;11.02;7.85;;;19.40;99.90;;;;;;6154575;23;20071;-76
2021/08/29 09:59:48;;;;;;;10.52;7.32;;;19.40;99.90;;;;;;6154341;23;20072;-76
2021/08/29 10:02:29;;;;;;;11.52;7.22;;;19.40;99.90;;;;;;6154546;23;20001;-76
2021/08/29 10:05:13;;;;;;;9.45;7.35;;;19.40;99.90;;;;;;6153784;23;20010;-77
2021/08/29 10:07:59;;;;;;;8.25;6.95;;;19.40;99.90;;;;;;6153960;23;20077;-77
2021/08/29 10:10:27;;;;;;;8.20;6.68;;;19.40;99.90;;;;;;6154149;23;20424;-76
2021/08/29 10:12:54;;;;;;;8.13;6.18;;;19.40;99.90;;;;;;6154332;23;19998;-76
2021/08/29 10:15:20;;;;;;;6.70;5.97;;;19.20;99.90;;;;;;6154095;23;20420;-76
2021/08/29 10:17:46;;;;;;;10.13;6.70;;;19.30;99.90;;;;;;6147760;23;20017;-75
2021/08/29 10:20:17;;;;;;;7.53;6.10;;;19.20;99.90;;;;;;6151504;23;20005;-75
2021/08/29 10:22:44;;;;;;;7.80;6.07;;;19.20;99.90;;;;;;6151044;23;20009;-76
2021/08/29 10:25:12;;;;;;;8.23;5.95;;;19.10;99.90;;;;;;6153129;23;20006;-76
2021/08/29 10:27:40;;;;;;;6.28;5.60;;;19.00;99.90;;;;;;6151493;23;20073;-76
2021/08/29 10:30:12;;;;;;;6.82;5.57;;;18.90;99.90;;;;;;6151880;23;20578;-76
2021/08/29 10:32:45;;;;;;;7.00;5.90;;;18.80;99.90;;;;;;6151650;23;20001;-76
2021/08/29 10:35:15;;;;;;;7.45;5.90;;;18.80;99.90;;;;;;6151587;23;20030;-76
2021/08/29 10:37:44;;;;;;;7.00;5.57;;;18.70;99.90;;;;;;6125151;23;20018;-75
2021/08/29 10:40:12;;;;;;;9.95;5.95;;;18.60;99.90;;;;;;6152283;23;20029;-75
2021/08/29 10:42:40;;;;;;;7.65;5.82;;;18.60;99.90;;;;;;6150372;23;20002;-76
2021/08/29 10:45:07;;;;;;;9.38;5.90;;;18.60;99.90;;;;;;6151310;23;20525;-75
2021/08/29 10:47:33;;;;;;;7.50;6.28;;;18.60;99.90;;;;;;6151456;23;20449;-76
2021/08/29 10:50:03;;;;;;;7.18;5.45;;;18.60;99.90;;;;;;6151935;23;20096;-76
2021/08/29 10:52:31;;;;;;;7.70;5.82;;;18.50;99.90;;;;;;6150896;23;20313;-75
2021/08/29 10:55:02;;;;;;;8.35;5.40;;;18.50;99.90;;;;;;6151388;23;20500;-75
2021/08/29 10:57:42;;;;;;;7.68;4.93;;;18.50;99.90;;;;;;6151272;23;20145;-75
2021/08/29 11:00:12;;;;;;;5.95;5.10;;;18.40;99.90;;;;;;6151928;23;20013;-75
2021/08/29 11:02:43;;;;;;;6.25;5.47;;;18.50;99.90;;;;;;6150577;23;20038;-77
2021/08/29 11:05:36;;;;;;;5.43;4.93;;;18.40;99.90;;;;;;6149652;23;20012;-74
2021/08/29 11:08:27;;;;;;;6.80;5.75;;;18.40;99.90;;;;;;6099437;23;20586;-76
2021/08/29 11:10:54;;;;;;;7.90;6.30;;;18.40;99.90;;;;;;6151617;23;20025;-76
2021/08/29 11:13:32;;;;;;;7.60;6.03;;;18.50;99.90;;;;;;6151927;23;20005;-75
2021/08/29 11:16:12;;;;;;;8.63;5.55;;;18.60;99.90;;;;;;6125564;23;20006;-76
2021/08/29 11:19:03;;;;;;;6.32;5.57;;;18.60;99.90;;;;;;6151847;23;20097;-75
2021/08/29 11:21:34;;;;;;;6.90;5.20;;;18.80;99.90;;;;;;6149613;23;20077;-76
2021/08/29 11:24:01;;;;;;;9.80;6.63;;;18.90;99.90;;;;;;6151623;23;20012;-75
2021/08/29 11:26:35;;;;;;;7.43;6.57;;;19.00;99.90;;;;;;6149289;23;20029;-76
2021/08/29 11:29:02;;;;;;;9.07;6.20;;;19.20;99.90;;;;;;6150936;23;20093;-75
2021/08/29 11:31:49;;;;;;;7.30;5.80;;;19.30;99.90;;;;;;6150771;23;20006;-76
2021/08/29 11:34:16;;;;;;;7.50;5.45;;;19.50;99.90;;;;;;6151279;23;20076;-75
2021/08/29 11:36:42;;;;;;;7.30;5.35;;;19.60;99.90;;;;;;6151423;23;20032;-75
2021/08/29 11:39:32;;;;;;;5.72;4.60;;;19.70;99.90;;;;;;6151471;23;20480;-75
2021/08/29 11:42:18;;;;;;;5.68;4.43;;;19.80;99.90;;;;;;6150346;23;20068;-76
2021/08/29 11:44:45;;;;;;;6.38;4.72;;;19.90;99.90;;;;;;6151063;23;20016;-75
2021/08/29 11:47:11;;;;;;;4.88;4.18;;;20.00;99.90;;;;;;6151589;23;20005;-75
2021/08/29 11:49:38;;;;;;;3.75;3.40;;;20.20;99.90;;;;;;6151421;23;20559;-76
2021/08/29 11:52:05;;;;;;;5.80;4.22;;;20.30;99.90;;;;;;6151539;23;20429;-75
2021/08/29 11:54:30;;;;;;;6.72;3.80;;;20.40;99.90;;;;;;6151788;23;20423;-75
2021/08/29 11:56:56;;;;;;;6.07;4.47;;;20.40;99.90;;;;;;6152358;23;20065;-76
2021/08/29 11:59:33;;;;;;;5.22;3.83;;;20.40;99.90;;;;;;6152899;23;20333;-75
2021/08/29 12:02:00;;;;;;;5.50;3.80;;;20.40;99.90;;;;;;6151402;23;20006;-74
2021/08/29 12:04:26;;;;;;;7.00;3.50;;;20.30;99.90;;;;;;6153527;23;20006;-75
2021/08/29 12:07:10;;;;;;;8.30;3.78;;;20.30;99.90;;;;;;6152874;23;20112;-75
2021/08/29 12:09:41;;;;;;;4.57;3.70;;;20.20;99.90;;;;;;6154438;23;20381;-75
2021/08/29 12:12:14;;;;;;;5.15;3.75;;;20.30;99.90;;;;;;6155989;23;20013;-76
2021/08/29 12:14:40;;;;;;;4.90;3.92;;;20.20;99.90;;;;;;6155418;23;20460;-75
2021/08/29 12:17:10;;;;;;;7.20;3.85;;;20.40;99.90;;;;;;6154772;23;20005;-75
2021/08/29 12:19:38;;;;;;;7.95;3.65;;;20.50;99.90;;;;;;6153837;23;20476;-76
2021/08/29 12:22:07;;;;;;;4.43;3.10;;;20.60;99.90;;;;;;6154539;23;20084;-75
2021/08/29 12:24:36;;;;;;;4.20;3.40;;;20.70;99.90;;;;;;6155017;23;20006;-77
2021/08/29 12:27:08;;;;;;;5.28;3.47;;;20.80;99.90;;;;;;6152630;23;20008;-76
2021/08/29 12:29:48;;;;;;;7.97;3.70;;;20.90;99.90;;;;;;6152847;23;20008;-76
2021/08/29 12:32:19;;;;;;;5.78;3.70;;;20.80;99.90;;;;;;6153439;23;20770;-77
2021/08/29 12:35:08;;;;;;;4.65;3.50;;;20.80;99.90;;;;;;6151625;23;20369;-77
2021/08/29 12:37:40;;;;;;;5.47;3.90;;;20.80;99.90;;;;;;6152568;23;20400;-77
2021/08/29 12:40:09;;;;;;;6.88;3.80;;;20.70;99.90;;;;;;6153765;23;20001;-76